Terminal Aerodrome Forecast
Issued by NWS

Home | Current Version | Previous Version | Text Only | Print | Product List | Glossary On
Versions: 1 2 3 4 5 6 7 8 9 10 11 12
000
FTUS46 KPDT 031731
TAFBDN
TAF
KBDN 031731Z 0318/0418 VRB04KT P6SM SCT250
     FM031900 34007KT P6SM SKC
     FM032200 34012G19KT P6SM FEW100 SCT250
     FM040400 34008KT P6SM FEW100 SCT250
     FM040800 22004KT P6SM SCT200
     FM041700 29005KT P6SM FEW100 SCT200
      AMD NOT SKED=

USA.gov is the U.S. government's official web portal to all federal, state and local government web resources and services.